createdAt,value
2022-10-04T00:01:47.877Z,9.26
2022-10-04T00:04:40.992Z,9.25
2022-10-04T00:07:17.798Z,9.18
2022-10-04T00:09:58.367Z,9.15
2022-10-04T00:12:29.434Z,9.14
2022-10-04T00:14:59.482Z,9.13
2022-10-04T00:17:31.767Z,9.14
2022-10-04T00:19:58.921Z,9.15
2022-10-04T00:22:33.167Z,9.19
2022-10-04T00:25:13.727Z,9.19
2022-10-04T00:28:19.345Z,9.17
2022-10-04T00:31:12.471Z,9.25
2022-10-04T00:34:04.227Z,9.29
2022-10-04T00:36:36.677Z,9.37
2022-10-04T00:39:09.636Z,9.49
2022-10-04T00:41:49.016Z,9.60
2022-10-04T00:44:21.674Z,9.65
2022-10-04T00:46:49.017Z,9.72
2022-10-04T00:49:18.354Z,9.77
2022-10-04T00:51:54.618Z,9.82
2022-10-04T00:54:34.366Z,9.90
2022-10-04T00:57:22.714Z,9.93
2022-10-04T00:59:54.739Z,9.92
2022-10-04T01:02:32.710Z,10.03
2022-10-04T01:05:06.848Z,10.01
2022-10-04T01:07:39.249Z,10.02
2022-10-04T01:10:11.716Z,10.04
2022-10-04T01:12:46.258Z,10.06
2022-10-04T01:15:22.156Z,10.04
2022-10-04T01:18:09.638Z,10.02
2022-10-04T01:21:05.576Z,9.96
2022-10-04T01:23:38.564Z,9.88
2022-10-04T01:26:07.185Z,9.78
2022-10-04T01:28:35.110Z,9.68
2022-10-04T01:31:02.314Z,9.60
2022-10-04T01:33:30.078Z,9.54
2022-10-04T01:35:57.496Z,9.47
2022-10-04T01:38:24.449Z,9.43
2022-10-04T01:41:00.113Z,9.39
2022-10-04T01:43:32.330Z,9.35
2022-10-04T01:46:04.958Z,9.34
2022-10-04T01:48:37.169Z,9.32
2022-10-04T01:51:11.731Z,9.29
2022-10-04T01:53:50.751Z,9.29
2022-10-04T01:56:20.869Z,9.26
2022-10-04T01:58:52.437Z,9.23
2022-10-04T02:01:23.831Z,9.22
2022-10-04T02:04:40.585Z,9.18
2022-10-04T02:07:12.936Z,9.15
2022-10-04T02:09:43.829Z,9.15
2022-10-04T02:12:17.364Z,9.11
2022-10-04T02:14:52.722Z,9.09
2022-10-04T02:17:28.340Z,9.11
2022-10-04T02:19:55.714Z,9.11
2022-10-04T02:22:23.864Z,9.09
2022-10-04T02:24:50.962Z,9.08
2022-10-04T02:27:17.947Z,9.09
2022-10-04T02:29:45.439Z,9.15
2022-10-04T02:32:32.805Z,9.12
2022-10-04T02:34:59.899Z,9.10
2022-10-04T02:37:28.105Z,9.12
2022-10-04T02:40:04.286Z,9.12
2022-10-04T02:42:39.971Z,9.10
2022-10-04T02:45:37.858Z,9.07
2022-10-04T02:48:34.710Z,9.09
2022-10-04T02:51:12.387Z,9.11
2022-10-04T02:54:02.983Z,9.16
2022-10-04T02:56:31.648Z,9.14
2022-10-04T02:59:03.857Z,9.11
2022-10-04T03:01:44.141Z,9.11
2022-10-04T03:04:13.707Z,9.10
2022-10-04T03:06:42.285Z,9.11
2022-10-04T03:09:09.480Z,9.15
2022-10-04T03:11:39.111Z,9.11
2022-10-04T03:14:28.058Z,9.07
2022-10-04T03:16:56.588Z,9.04
2022-10-04T03:19:25.451Z,9.03
2022-10-04T03:21:54.412Z,9.02
2022-10-04T03:24:31.726Z,9.02
2022-10-04T03:27:00.985Z,9.01
2022-10-04T03:29:30.372Z,9.01
2022-10-04T03:31:58.318Z,9.02
2022-10-04T03:34:28.543Z,9.00
2022-10-04T03:36:58.818Z,8.96
2022-10-04T03:39:58.318Z,8.95
2022-10-04T03:42:30.469Z,8.89
2022-10-04T03:45:07.585Z,8.87
2022-10-04T03:47:36.920Z,8.88
2022-10-04T03:50:13.191Z,8.91
2022-10-04T03:52:50.875Z,8.88
2022-10-04T03:55:18.662Z,8.87
2022-10-04T03:57:45.828Z,8.88
2022-10-04T04:00:17.314Z,8.88
2022-10-04T04:02:54.676Z,8.89
2022-10-04T04:05:26.617Z,8.91
2022-10-04T04:08:12.437Z,8.95
2022-10-04T04:10:43.006Z,8.90
2022-10-04T04:13:24.663Z,8.88
2022-10-04T04:15:54.816Z,8.90
2022-10-04T04:18:24.318Z,8.88
2022-10-04T04:20:53.876Z,8.89
2022-10-04T04:23:35.026Z,8.93
2022-10-04T04:26:28.576Z,8.93
2022-10-04T04:29:14.308Z,8.94
2022-10-04T04:31:43.936Z,8.97
2022-10-04T04:34:22.357Z,9.03
2022-10-04T04:36:49.356Z,9.09
2022-10-04T04:39:43.132Z,9.15
2022-10-04T04:42:25.222Z,9.28
2022-10-04T04:44:53.127Z,9.36
2022-10-04T04:47:40.817Z,9.43
2022-10-04T04:50:15.976Z,9.48
2022-10-04T04:53:05.922Z,9.54
2022-10-04T04:56:02.683Z,9.68
2022-10-04T04:58:39.426Z,9.75
2022-10-04T05:01:13.837Z,9.86
2022-10-04T05:03:41.743Z,9.89
2022-10-04T05:06:28.117Z,9.88
2022-10-04T05:08:55.121Z,9.84
2022-10-04T05:11:23.347Z,9.84
2022-10-04T05:13:53.917Z,9.87
2022-10-04T05:16:25.258Z,9.88
2022-10-04T05:19:01.009Z,9.90
2022-10-04T05:21:30.300Z,9.99
2022-10-04T05:23:58.924Z,9.94
2022-10-04T05:26:30.945Z,9.91
2022-10-04T05:29:00.081Z,9.93
2022-10-04T05:31:42.440Z,9.97
2022-10-04T05:34:29.483Z,10.12
2022-10-04T05:37:45.452Z,10.15
2022-10-04T05:40:15.184Z,10.24
2022-10-04T05:42:49.489Z,10.21
2022-10-04T05:45:25.330Z,10.23
2022-10-04T05:48:00.952Z,10.24
2022-10-04T05:50:36.477Z,10.32
2022-10-04T05:53:29.418Z,10.46
2022-10-04T05:56:34.179Z,10.62
2022-10-04T05:59:36.633Z,10.79
2022-10-04T06:02:20.463Z,10.93
2022-10-04T06:05:00.146Z,10.76
2022-10-04T06:07:47.453Z,10.70
2022-10-04T06:10:36.618Z,10.76
2022-10-04T06:13:31.052Z,10.68
2022-10-04T06:16:04.623Z,10.71
2022-10-04T06:18:59.549Z,10.75
2022-10-04T06:21:32.218Z,10.76
2022-10-04T06:24:06.001Z,10.79
2022-10-04T06:26:57.043Z,10.82
2022-10-04T06:29:28.748Z,10.85
2022-10-04T06:32:33.212Z,10.93
2022-10-04T06:35:21.428Z,11.03
2022-10-04T06:38:13.264Z,11.14
2022-10-04T06:40:56.070Z,11.20
2022-10-04T06:43:38.076Z,11.38
2022-10-04T06:46:17.408Z,11.54
2022-10-04T06:49:00.426Z,11.55
2022-10-04T06:51:53.859Z,11.57
2022-10-04T06:54:28.100Z,11.67
2022-10-04T06:57:19.545Z,11.76
2022-10-04T07:00:00.198Z,11.77
2022-10-04T07:02:39.844Z,11.76
2022-10-04T07:05:21.797Z,11.76
2022-10-04T07:08:06.851Z,11.81
2022-10-04T07:10:55.611Z,11.90
2022-10-04T07:13:28.968Z,11.96
2022-10-04T07:16:02.442Z,11.97
2022-10-04T07:19:03.476Z,12.01
2022-10-04T07:21:49.795Z,12.13
2022-10-04T07:24:32.809Z,12.20
2022-10-04T07:29:36.689Z,12.30
2022-10-04T07:32:08.926Z,12.37
2022-10-04T07:34:47.299Z,12.42
2022-10-04T07:37:15.187Z,12.46
2022-10-04T07:39:50.831Z,12.45
2022-10-04T07:42:24.777Z,12.40
2022-10-04T07:45:30.345Z,12.49
2022-10-04T07:48:16.765Z,12.51
2022-10-04T07:51:10.058Z,12.53
2022-10-04T07:53:50.479Z,12.58
2022-10-04T07:56:27.278Z,12.61
2022-10-04T07:59:06.427Z,12.72
2022-10-04T08:01:49.028Z,12.80
2022-10-04T08:04:31.976Z,12.87
2022-10-04T08:07:01.623Z,12.78
2022-10-04T08:09:42.818Z,12.67
2022-10-04T08:12:28.990Z,12.67
2022-10-04T08:15:41.194Z,12.74
2022-10-04T08:18:08.297Z,12.89
2022-10-04T08:20:58.238Z,12.97
2022-10-04T08:24:22.627Z,13.11
2022-10-04T08:27:02.167Z,13.15
2022-10-04T08:29:45.118Z,13.14
2022-10-04T08:32:33.289Z,13.02
2022-10-04T08:35:19.618Z,12.90
2022-10-04T08:38:21.830Z,12.87
2022-10-04T08:40:54.510Z,12.84
2022-10-04T08:43:59.609Z,12.72
2022-10-04T08:46:59.253Z,12.80
2022-10-04T08:49:40.019Z,12.95
2022-10-04T08:52:44.296Z,13.11
2022-10-04T08:55:31.440Z,13.18
2022-10-04T08:58:23.894Z,13.22
2022-10-04T09:01:18.421Z,13.08
2022-10-04T09:04:04.035Z,12.97
2022-10-04T09:07:01.890Z,12.99
2022-10-04T09:09:56.976Z,13.07
2022-10-04T09:12:41.393Z,13.11
2022-10-04T09:15:14.845Z,13.16
2022-10-04T09:18:12.935Z,13.23
2022-10-04T09:21:01.313Z,13.27
2022-10-04T09:23:31.547Z,13.34
2022-10-04T09:26:21.069Z,13.44
2022-10-04T09:29:33.272Z,13.48
2022-10-04T09:32:11.657Z,13.57
2022-10-04T09:35:06.507Z,13.61
2022-10-04T09:38:03.021Z,13.76
2022-10-04T09:41:07.398Z,13.71
2022-10-04T09:44:13.866Z,13.53
2022-10-04T09:47:08.020Z,13.42
2022-10-04T09:50:14.197Z,13.46
2022-10-04T09:53:08.811Z,13.52
2022-10-04T09:56:12.950Z,13.62
2022-10-04T09:58:58.757Z,13.63
2022-10-04T10:01:45.341Z,13.66
2022-10-04T10:04:49.691Z,13.73
2022-10-04T10:07:35.018Z,13.81
2022-10-04T10:10:28.995Z,13.84
2022-10-04T10:13:38.431Z,13.93
2022-10-04T10:16:20.255Z,14.00
2022-10-04T10:19:14.941Z,14.06
2022-10-04T10:21:44.669Z,14.12
2022-10-04T10:24:17.470Z,14.08
2022-10-04T10:27:25.297Z,14.05
2022-10-04T10:30:19.058Z,14.01
2022-10-04T10:33:04.764Z,13.91
2022-10-04T10:35:53.732Z,13.74
2022-10-04T10:38:40.424Z,13.71
2022-10-04T10:41:41.561Z,13.65
2022-10-04T10:44:23.646Z,13.68
2022-10-04T10:47:09.047Z,13.87
2022-10-04T10:49:54.348Z,14.02
2022-10-04T10:52:44.038Z,14.19
2022-10-04T10:55:49.276Z,14.25
2022-10-04T10:58:53.457Z,14.21
2022-10-04T11:01:42.387Z,14.24
2022-10-04T11:04:40.519Z,14.33
2022-10-04T11:07:37.414Z,14.35
2022-10-04T11:10:26.839Z,14.30
2022-10-04T11:13:10.311Z,14.25
2022-10-04T11:16:07.952Z,14.23
2022-10-04T11:18:41.234Z,14.20
2022-10-04T11:21:35.199Z,14.16
2022-10-04T11:24:32.870Z,14.09
2022-10-04T11:27:25.156Z,13.92
2022-10-04T11:30:14.086Z,13.89
2022-10-04T11:33:18.269Z,14.11
2022-10-04T11:36:19.252Z,14.26
2022-10-04T11:39:07.032Z,14.48
2022-10-04T11:41:40.060Z,14.67
2022-10-04T11:44:31.145Z,14.79
2022-10-04T11:47:24.685Z,14.85
2022-10-04T11:50:14.585Z,14.89
2022-10-04T11:52:44.551Z,14.96
2022-10-04T11:55:36.558Z,14.98
2022-10-04T11:58:40.337Z,14.94
2022-10-04T12:01:30.505Z,14.97
2022-10-04T12:04:35.111Z,14.91
2022-10-04T12:07:31.104Z,14.90
2022-10-04T12:10:30.439Z,14.91
2022-10-04T12:13:34.797Z,14.90
2022-10-04T12:16:32.663Z,14.89
2022-10-04T12:19:30.313Z,14.95
2022-10-04T12:22:12.513Z,14.90
2022-10-04T12:24:59.547Z,14.90
2022-10-04T12:27:39.505Z,14.89
2022-10-04T12:30:34.473Z,14.79
2022-10-04T12:33:27.565Z,14.72
2022-10-04T12:36:13.695Z,14.68
2022-10-04T12:38:53.577Z,14.61
2022-10-04T12:41:46.064Z,14.45
2022-10-04T12:44:34.225Z,14.31
2022-10-04T12:47:26.251Z,14.23
2022-10-04T12:49:54.895Z,14.27
2022-10-04T12:52:25.524Z,14.29
2022-10-04T12:55:41.016Z,14.33
2022-10-04T12:58:33.197Z,14.38
2022-10-04T13:01:27.525Z,14.51
2022-10-04T13:03:55.157Z,14.50
2022-10-04T13:06:31.636Z,14.56
2022-10-04T13:09:17.947Z,14.63
2022-10-04T13:12:22.941Z,14.67
2022-10-04T13:15:11.190Z,14.83
2022-10-04T13:17:55.071Z,14.89
2022-10-04T13:20:26.242Z,14.85
2022-10-04T13:23:08.111Z,14.84
2022-10-04T13:26:06.072Z,14.76
2022-10-04T13:29:02.001Z,14.59
2022-10-04T13:32:01.435Z,14.48
2022-10-04T13:34:49.660Z,14.43
2022-10-04T13:37:45.321Z,14.51
2022-10-04T13:40:33.337Z,14.61
2022-10-04T13:43:28.412Z,14.63
2022-10-04T13:46:08.326Z,14.69
2022-10-04T13:48:55.649Z,14.72
2022-10-04T13:51:31.376Z,14.65
2022-10-04T13:54:31.911Z,14.57
2022-10-04T13:57:13.453Z,14.47
2022-10-04T14:00:02.377Z,14.35
2022-10-04T14:02:48.021Z,14.25
2022-10-04T14:05:32.502Z,14.18
2022-10-04T14:08:37.131Z,14.21
2022-10-04T14:11:26.854Z,14.23
2022-10-04T14:14:40.445Z,14.18
2022-10-04T14:17:46.397Z,14.19
2022-10-04T14:20:44.168Z,14.20
2022-10-04T14:23:35.847Z,14.16
2022-10-04T14:26:34.277Z,14.16
2022-10-04T14:29:19.661Z,14.10
2022-10-04T14:32:20.516Z,14.06
2022-10-04T14:34:57.286Z,14.03
2022-10-04T14:38:02.039Z,13.97
2022-10-04T14:40:47.482Z,13.90
2022-10-04T14:43:44.987Z,13.88
2022-10-04T14:46:30.280Z,13.89
2022-10-04T14:49:11.690Z,13.90
2022-10-04T14:51:42.527Z,13.90
2022-10-04T14:54:29.988Z,13.92
2022-10-04T14:57:21.056Z,13.89
2022-10-04T15:00:25.399Z,13.92
2022-10-04T15:03:02.979Z,13.91
2022-10-04T15:05:45.398Z,13.91
2022-10-04T15:08:43.081Z,13.90
2022-10-04T15:11:17.481Z,13.88
2022-10-04T15:14:05.403Z,13.81
2022-10-04T15:16:40.497Z,13.76
2022-10-04T15:19:23.777Z,13.69
2022-10-04T15:22:06.043Z,13.63
2022-10-04T15:24:39.668Z,13.55
2022-10-04T15:27:37.111Z,13.47
2022-10-04T15:30:17.993Z,13.37
2022-10-04T15:33:11.634Z,13.34
2022-10-04T15:35:57.090Z,13.25
2022-10-04T15:38:44.767Z,13.18
2022-10-04T15:41:46.167Z,13.12
2022-10-04T15:45:09.742Z,13.05
2022-10-04T15:48:13.788Z,12.98
2022-10-04T15:50:59.324Z,12.87
2022-10-04T15:53:57.292Z,12.80
2022-10-04T15:56:24.505Z,12.70
2022-10-04T15:58:57.117Z,12.59
2022-10-04T16:02:01.507Z,12.51
2022-10-04T16:04:37.653Z,12.45
2022-10-04T16:07:07.797Z,12.35
2022-10-04T16:10:12.200Z,12.26
2022-10-04T16:13:01.526Z,12.20
2022-10-04T16:15:42.478Z,12.09
2022-10-04T16:18:31.499Z,12.02
2022-10-04T16:21:12.860Z,11.95
2022-10-04T16:23:44.229Z,11.91
2022-10-04T16:26:19.619Z,11.80
2022-10-04T16:28:57.244Z,11.74
2022-10-04T16:31:56.096Z,11.71
2022-10-04T16:34:57.220Z,11.64
2022-10-04T16:37:24.132Z,11.54
2022-10-04T16:40:06.062Z,11.43
2022-10-04T16:42:42.180Z,11.44
2022-10-04T16:45:09.851Z,11.36
2022-10-04T16:47:53.069Z,11.29
2022-10-04T16:50:54.041Z,11.25
2022-10-04T16:53:48.922Z,11.20
2022-10-04T16:56:24.882Z,11.10
2022-10-04T16:59:00.552Z,11.03
2022-10-04T17:01:38.847Z,10.99
2022-10-04T17:04:24.409Z,10.93
2022-10-04T17:06:54.532Z,10.94
2022-10-04T17:09:43.293Z,10.89
2022-10-04T17:12:28.466Z,10.82
2022-10-04T17:14:57.980Z,10.76
2022-10-04T17:17:31.709Z,10.69
2022-10-04T17:20:36.383Z,10.61
2022-10-04T17:23:21.610Z,10.56
2022-10-04T17:25:57.584Z,10.53
2022-10-04T17:28:30.795Z,10.49
2022-10-04T17:31:14.541Z,10.46
2022-10-04T17:34:03.426Z,10.42
2022-10-04T17:36:39.471Z,10.39
2022-10-04T17:39:44.806Z,10.37
2022-10-04T17:42:24.209Z,10.33
2022-10-04T17:45:00.407Z,10.29
2022-10-04T17:47:49.526Z,10.26
2022-10-04T17:50:39.861Z,10.23
2022-10-04T17:53:33.813Z,10.15
2022-10-04T17:56:02.993Z,10.10
2022-10-04T17:58:51.346Z,10.04
2022-10-04T18:01:32.159Z,9.98
2022-10-04T18:04:21.084Z,9.91
2022-10-04T18:06:51.191Z,9.88
2022-10-04T18:09:23.975Z,9.83
2022-10-04T18:11:59.327Z,9.80
2022-10-04T18:14:42.341Z,9.78
2022-10-04T18:17:25.366Z,9.77
2022-10-04T18:20:19.867Z,9.79
2022-10-04T18:22:51.719Z,9.82
2022-10-04T18:25:24.201Z,9.82
2022-10-04T18:28:13.863Z,9.82
2022-10-04T18:30:53.464Z,9.82
2022-10-04T18:33:26.636Z,9.83
2022-10-04T18:36:35.017Z,9.82
2022-10-04T18:39:15.421Z,9.82
2022-10-04T18:41:57.027Z,9.81
2022-10-04T18:44:31.288Z,9.84
2022-10-04T18:47:02.488Z,9.83
2022-10-04T18:49:33.388Z,9.84
2022-10-04T18:52:21.249Z,9.85
2022-10-04T18:54:57.401Z,9.85
2022-10-04T18:57:30.697Z,9.85
2022-10-04T19:00:16.483Z,9.88
2022-10-04T19:03:17.315Z,9.92
2022-10-04T19:06:21.806Z,9.95
2022-10-04T19:09:07.413Z,10.02
2022-10-04T19:11:41.374Z,10.09
2022-10-04T19:14:45.681Z,10.15
2022-10-04T19:17:12.709Z,10.22
2022-10-04T19:19:51.775Z,10.27
2022-10-04T19:22:31.372Z,10.32
2022-10-04T19:25:22.065Z,10.36
2022-10-04T19:27:52.841Z,10.41
2022-10-04T19:30:22.542Z,10.44
2022-10-04T19:33:00.506Z,10.43
2022-10-04T19:35:49.282Z,10.47
2022-10-04T19:38:52.348Z,10.49
2022-10-04T19:41:38.574Z,10.51
2022-10-04T19:44:11.932Z,10.51
2022-10-04T19:47:00.724Z,10.52
2022-10-04T19:50:06.603Z,10.51
2022-10-04T19:53:01.591Z,10.49
2022-10-04T19:56:00.192Z,10.44
2022-10-04T19:58:37.561Z,10.39
2022-10-04T20:01:32.021Z,10.34
2022-10-04T20:04:18.003Z,10.35
2022-10-04T20:06:50.389Z,10.35
2022-10-04T20:09:48.036Z,10.32
2022-10-04T20:12:35.615Z,10.29
2022-10-04T20:15:46.727Z,10.31
2022-10-04T20:18:33.042Z,10.29
2022-10-04T20:21:00.364Z,10.26
2022-10-04T20:23:39.628Z,10.23
2022-10-04T20:26:10.045Z,10.19
2022-10-04T20:28:40.818Z,10.13
2022-10-04T20:31:33.143Z,10.09
2022-10-04T20:34:33.490Z,10.06
2022-10-04T20:37:00.846Z,10.05
2022-10-04T20:39:40.201Z,10.01
2022-10-04T20:42:27.069Z,10.00
2022-10-04T20:45:22.285Z,9.95
2022-10-04T20:47:54.799Z,9.93
2022-10-04T20:50:25.444Z,9.91
2022-10-04T20:52:54.526Z,9.87
2022-10-04T20:55:35.403Z,9.86
2022-10-04T20:58:04.939Z,9.86
2022-10-04T21:00:34.301Z,9.84
2022-10-04T21:03:17.765Z,9.86
2022-10-04T21:05:53.088Z,9.89
2022-10-04T21:08:24.650Z,9.90
2022-10-04T21:11:20.483Z,9.88
2022-10-04T21:14:01.032Z,9.87
2022-10-04T21:16:38.268Z,9.87
2022-10-04T21:19:30.374Z,9.88
2022-10-04T21:21:58.480Z,9.91
2022-10-04T21:24:39.112Z,9.91
2022-10-04T21:27:09.569Z,9.92
2022-10-04T21:29:37.470Z,9.91
2022-10-04T21:32:05.010Z,9.94
2022-10-04T21:34:52.388Z,9.99
2022-10-04T21:37:19.417Z,10.07
2022-10-04T21:39:46.337Z,10.12
2022-10-04T21:42:13.375Z,10.15
2022-10-04T21:44:40.298Z,10.14
2022-10-04T21:47:07.357Z,10.13
2022-10-04T21:49:34.580Z,10.16
2022-10-04T21:52:02.041Z,10.16
2022-10-04T21:54:29.115Z,10.18
2022-10-04T21:56:56.038Z,10.20
2022-10-04T21:59:23.300Z,10.20
2022-10-04T22:01:50.410Z,10.18
2022-10-04T22:04:17.991Z,10.16
2022-10-04T22:06:45.354Z,10.14
2022-10-04T22:09:12.553Z,10.15
2022-10-04T22:11:39.493Z,10.13
2022-10-04T22:14:07.584Z,10.10
2022-10-04T22:16:34.819Z,10.06
2022-10-04T22:19:01.821Z,10.01
2022-10-04T22:21:28.674Z,9.93
2022-10-04T22:23:56.416Z,9.85
2022-10-04T22:26:26.165Z,9.77
2022-10-04T22:28:56.530Z,9.71
2022-10-04T22:31:28.481Z,9.67
2022-10-04T22:33:56.107Z,9.66
2022-10-04T22:36:41.717Z,9.62
2022-10-04T22:39:08.718Z,9.61
2022-10-04T22:41:39.637Z,9.58
2022-10-04T22:44:15.893Z,9.59
2022-10-04T22:46:45.845Z,9.62
2022-10-04T22:49:17.128Z,9.64
2022-10-04T22:51:45.355Z,9.69
2022-10-04T22:54:14.682Z,9.72
2022-10-04T22:56:41.923Z,9.75
2022-10-04T22:59:13.363Z,9.73
2022-10-04T23:01:40.653Z,9.74
2022-10-04T23:04:33.679Z,9.72
2022-10-04T23:07:00.755Z,9.76
2022-10-04T23:09:27.685Z,9.75
2022-10-04T23:11:54.755Z,9.77
2022-10-04T23:14:21.671Z,9.77
2022-10-04T23:16:49.153Z,9.78
2022-10-04T23:19:23.059Z,9.79
2022-10-04T23:21:50.292Z,9.82
2022-10-04T23:24:19.573Z,9.85
2022-10-04T23:26:49.756Z,9.86
2022-10-04T23:29:19.535Z,9.89
2022-10-04T23:31:47.426Z,9.89
2022-10-04T23:34:20.714Z,9.93
2022-10-04T23:36:48.962Z,9.93
2022-10-04T23:39:27.524Z,9.96
2022-10-04T23:41:56.036Z,9.97
2022-10-04T23:44:24.653Z,9.94
2022-10-04T23:46:52.097Z,9.92
2022-10-04T23:49:22.598Z,9.88
2022-10-04T23:51:58.964Z,9.84
2022-10-04T23:54:26.525Z,9.81
2022-10-04T23:56:53.598Z,9.76
2022-10-04T23:59:24.028Z,9.73
